Time;durP1;ratioP1;P1;durP2;ratioP2;P2;SDS_P1;SDS_P2;PMS_P1;PMS_P2;Temp;Humidity;BMP_temperature;BMP_pressure;BME280_temperature;BME280_humidity;BME280_pressure;Samples;Min_cycle;Max_cycle;Signal;HPM_P1;HPM_P2
2023/12/27 00:01:03;;;;;;;10.53;4.70;;;8.40;99.90;;;;;;5047662;28;20195;-77
2023/12/27 00:03:31;;;;;;;9.50;5.07;;;8.40;99.90;;;;;;5039731;28;20191;-76
2023/12/27 00:05:58;;;;;;;8.63;4.83;;;8.50;99.90;;;;;;5028567;28;20193;-76
2023/12/27 00:08:26;;;;;;;13.33;4.70;;;8.50;99.90;;;;;;5039407;28;20218;-77
2023/12/27 00:10:53;;;;;;;10.07;4.30;;;8.50;99.90;;;;;;5040256;28;20202;-76
2023/12/27 00:13:22;;;;;;;7.43;4.17;;;8.40;99.90;;;;;;5039734;28;20223;-77
2023/12/27 00:15:49;;;;;;;8.50;4.23;;;8.50;99.90;;;;;;5031230;28;20207;-77
2023/12/27 00:18:17;;;;;;;6.20;3.63;;;8.50;99.90;;;;;;5029969;28;20206;-77
2023/12/27 00:20:47;;;;;;;11.87;4.40;;;8.50;99.90;;;;;;5039374;28;20209;-77
2023/12/27 00:23:14;;;;;;;10.40;3.90;;;8.40;99.90;;;;;;5027309;28;20534;-77
2023/12/27 00:25:42;;;;;;;9.77;4.27;;;8.40;99.90;;;;;;5031656;28;20684;-77
2023/12/27 00:28:09;;;;;;;8.47;4.13;;;8.20;99.90;;;;;;5038061;28;20676;-76
2023/12/27 00:30:38;;;;;;;10.17;4.27;;;8.30;99.90;;;;;;5021308;28;20206;-76
2023/12/27 00:33:06;;;;;;;7.60;3.53;;;8.30;99.90;;;;;;5031750;28;20203;-77
2023/12/27 00:35:33;;;;;;;10.37;4.23;;;8.50;99.90;;;;;;5039155;28;20209;-76
2023/12/27 00:38:00;;;;;;;9.27;4.10;;;8.50;99.90;;;;;;5036667;28;20194;-76
2023/12/27 00:40:28;;;;;;;10.13;3.40;;;8.50;99.90;;;;;;5015086;28;20211;-77
2023/12/27 00:42:55;;;;;;;11.03;3.33;;;8.50;99.90;;;;;;5030401;28;20199;-77
2023/12/27 00:45:22;;;;;;;6.90;2.93;;;8.50;99.90;;;;;;5037548;28;20209;-77
2023/12/27 00:47:52;;;;;;;7.83;3.43;;;8.50;99.90;;;;;;5038438;28;20187;-77
2023/12/27 00:50:20;;;;;;;9.57;3.67;;;8.50;99.90;;;;;;5033219;28;20218;-77
2023/12/27 00:52:48;;;;;;;6.17;3.43;;;8.40;99.90;;;;;;5047608;28;20556;-77
2023/12/27 00:55:16;;;;;;;8.07;3.77;;;8.40;99.90;;;;;;5020780;28;20277;-77
2023/12/27 00:57:45;;;;;;;7.27;3.80;;;8.30;99.90;;;;;;5034122;28;20572;-77
2023/12/27 01:00:13;;;;;;;12.83;3.60;;;8.30;99.90;;;;;;5041932;28;20214;-77
2023/12/27 01:02:40;;;;;;;7.67;3.50;;;8.30;99.90;;;;;;5039177;28;20286;-77
2023/12/27 01:05:10;;;;;;;15.00;3.70;;;8.30;99.90;;;;;;5040012;28;20202;-77
2023/12/27 01:07:37;;;;;;;9.37;4.30;;;8.40;99.90;;;;;;5029315;28;20203;-77
2023/12/27 01:10:05;;;;;;;9.20;3.77;;;8.50;99.90;;;;;;5035450;28;20223;-77
2023/12/27 01:12:33;;;;;;;8.67;3.90;;;8.40;99.90;;;;;;5023215;28;20207;-77
2023/12/27 01:15:00;;;;;;;5.57;3.47;;;8.20;99.90;;;;;;5041551;28;20198;-77
2023/12/27 01:17:27;;;;;;;7.90;3.80;;;8.10;99.90;;;;;;5042126;28;20218;-77
2023/12/27 01:19:55;;;;;;;8.93;3.87;;;8.00;99.90;;;;;;5024496;28;20221;-77
2023/12/27 01:22:24;;;;;;;10.57;4.33;;;7.90;99.90;;;;;;5039838;28;20226;-77
2023/12/27 01:24:51;;;;;;;11.50;4.87;;;7.80;99.90;;;;;;5030099;28;20195;-76
2023/12/27 01:27:18;;;;;;;9.13;4.07;;;7.70;99.90;;;;;;5037230;28;20203;-77
2023/12/27 01:29:46;;;;;;;10.93;3.83;;;7.70;99.90;;;;;;5034559;28;20226;-77
2023/12/27 01:32:13;;;;;;;8.73;4.50;;;7.80;99.90;;;;;;5031985;28;20202;-77
2023/12/27 01:34:40;;;;;;;7.60;3.93;;;7.90;99.90;;;;;;5030436;28;20207;-76
2023/12/27 01:37:08;;;;;;;11.23;3.50;;;7.90;99.90;;;;;;5030758;28;20219;-76
2023/12/27 01:39:37;;;;;;;7.67;3.53;;;7.80;99.90;;;;;;5033118;28;20215;-76
2023/12/27 01:42:05;;;;;;;10.77;3.77;;;7.90;99.90;;;;;;5041099;28;20202;-76
2023/12/27 01:44:33;;;;;;;8.80;3.90;;;8.00;99.90;;;;;;5035799;28;20202;-77
2023/12/27 01:47:00;;;;;;;9.73;4.10;;;8.10;99.90;;;;;;5041170;28;20669;-77
2023/12/27 01:49:28;;;;;;;8.03;3.90;;;8.00;99.90;;;;;;5032072;28;20735;-76
2023/12/27 01:51:55;;;;;;;8.03;3.63;;;7.90;99.90;;;;;;5033210;28;20200;-77
2023/12/27 01:54:23;;;;;;;11.23;4.00;;;7.90;99.90;;;;;;5044342;28;20202;-77
2023/12/27 01:56:52;;;;;;;8.53;4.20;;;8.00;99.90;;;;;;5030500;28;20701;-77
2023/12/27 01:59:20;;;;;;;8.23;3.77;;;8.00;99.90;;;;;;5039676;28;20218;-77
2023/12/27 02:01:48;;;;;;;9.40;3.90;;;8.00;99.90;;;;;;5035945;28;20661;-77
2023/12/27 02:04:15;;;;;;;11.57;3.90;;;7.90;99.90;;;;;;5041184;28;20206;-77
2023/12/27 02:06:43;;;;;;;8.87;4.33;;;8.00;99.90;;;;;;5041193;28;20187;-76
2023/12/27 02:09:11;;;;;;;9.63;4.17;;;7.90;99.90;;;;;;5029067;28;20226;-77
2023/12/27 02:11:38;;;;;;;12.97;4.90;;;7.80;99.90;;;;;;5038774;28;20210;-77
2023/12/27 02:14:08;;;;;;;12.53;4.70;;;7.70;99.90;;;;;;5044865;28;20229;-76
2023/12/27 02:16:35;;;;;;;12.27;4.27;;;7.60;99.90;;;;;;5031896;28;20211;-76
2023/12/27 02:19:06;;;;;;;9.33;3.70;;;7.60;99.90;;;;;;5043323;28;20215;-76
2023/12/27 02:21:40;;;;;;;10.33;4.13;;;7.60;99.90;;;;;;5038448;28;20553;-77
2023/12/27 02:24:09;;;;;;;10.43;3.77;;;7.50;99.90;;;;;;5041015;28;20202;-76
2023/12/27 02:26:39;;;;;;;8.00;4.53;;;7.60;99.90;;;;;;5041658;28;20191;-76
2023/12/27 02:29:06;;;;;;;9.83;3.90;;;7.40;99.90;;;;;;5043811;28;20211;-77
2023/12/27 02:31:35;;;;;;;9.40;4.53;;;7.60;99.90;;;;;;5040052;28;20197;-76
2023/12/27 02:34:02;;;;;;;13.50;4.50;;;7.60;99.90;;;;;;5043891;28;20207;-76
2023/12/27 02:36:30;;;;;;;12.37;4.77;;;7.60;99.90;;;;;;5041339;28;20199;-76
2023/12/27 02:38:57;;;;;;;9.20;4.43;;;7.60;99.90;;;;;;5044348;28;20222;-76
2023/12/27 02:41:24;;;;;;;13.87;4.53;;;7.60;99.90;;;;;;5039696;28;20202;-77
2023/12/27 02:43:53;;;;;;;8.27;4.73;;;7.50;99.90;;;;;;5040493;28;20195;-76
2023/12/27 02:46:21;;;;;;;9.70;4.47;;;7.40;99.90;;;;;;5035319;28;20198;-76
2023/12/27 02:48:48;;;;;;;12.30;4.50;;;7.50;99.90;;;;;;5025337;28;20234;-77
2023/12/27 02:51:15;;;;;;;11.00;4.73;;;7.50;99.90;;;;;;5037212;28;20206;-76
2023/12/27 02:53:43;;;;;;;9.10;4.40;;;7.40;99.90;;;;;;5032805;28;20206;-76
2023/12/27 02:56:10;;;;;;;11.57;5.47;;;7.40;99.90;;;;;;5032258;28;20192;-76
2023/12/27 02:58:39;;;;;;;13.03;4.70;;;7.40;99.90;;;;;;5035567;28;20230;-76
2023/12/27 03:01:09;;;;;;;11.03;4.40;;;7.40;99.90;;;;;;5038407;28;20187;-76
2023/12/27 03:03:36;;;;;;;9.63;5.00;;;7.20;99.90;;;;;;5033611;28;20195;-76
2023/12/27 03:06:06;;;;;;;13.07;4.33;;;7.30;99.90;;;;;;5041616;28;20198;-76
2023/12/27 03:08:35;;;;;;;10.93;4.77;;;7.20;99.90;;;;;;5036262;28;20207;-76
2023/12/27 03:11:03;;;;;;;11.03;4.87;;;7.20;99.90;;;;;;5024699;28;20206;-76
2023/12/27 03:13:30;;;;;;;12.20;5.00;;;7.10;99.90;;;;;;5036410;28;20200;-76
2023/12/27 03:15:58;;;;;;;10.97;4.57;;;7.00;99.90;;;;;;5025939;28;20206;-76
2023/12/27 03:18:27;;;;;;;10.10;4.63;;;6.90;99.90;;;;;;5032308;28;20228;-76
2023/12/27 03:20:54;;;;;;;12.87;5.20;;;7.00;99.90;;;;;;5041567;28;20195;-76
2023/12/27 03:23:21;;;;;;;14.57;5.63;;;7.10;99.90;;;;;;5033938;28;20198;-76
2023/12/27 03:26:26;;;;;;;12.33;5.47;;;7.10;99.90;;;;;;5034557;28;20194;-76
2023/12/27 03:28:54;;;;;;;15.80;5.57;;;7.00;99.90;;;;;;5044185;28;20221;-76
2023/12/27 03:31:28;;;;;;;11.00;5.70;;;6.90;99.90;;;;;;5039134;28;20203;-76
2023/12/27 03:33:57;;;;;;;13.13;6.17;;;6.90;99.90;;;;;;5030710;28;20679;-77
2023/12/27 03:36:25;;;;;;;11.07;5.60;;;6.80;99.90;;;;;;5037991;28;20211;-76
2023/12/27 03:38:52;;;;;;;13.03;6.40;;;6.90;99.90;;;;;;5029469;28;20227;-76
2023/12/27 03:41:19;;;;;;;13.70;6.00;;;6.80;99.90;;;;;;5044510;28;20201;-76
2023/12/27 03:43:47;;;;;;;9.73;6.13;;;6.80;99.90;;;;;;5047707;28;20194;-76
2023/12/27 03:46:17;;;;;;;18.13;6.63;;;6.80;99.90;;;;;;5025654;28;20202;-76
2023/12/27 03:48:44;;;;;;;12.10;5.70;;;6.80;99.90;;;;;;5035415;28;20210;-76
2023/12/27 03:51:13;;;;;;;17.80;7.00;;;6.70;99.90;;;;;;5020040;28;20709;-76
2023/12/27 03:53:41;;;;;;;11.33;6.53;;;6.70;99.90;;;;;;5036073;28;20207;-76
2023/12/27 03:56:10;;;;;;;16.70;6.70;;;6.70;99.90;;;;;;5032415;28;20198;-76
2023/12/27 03:58:38;;;;;;;16.83;6.43;;;6.80;99.90;;;;;;5042698;28;20228;-76
2023/12/27 04:01:05;;;;;;;15.63;7.07;;;6.80;99.90;;;;;;5024673;28;20220;-76
2023/12/27 04:03:33;;;;;;;16.40;6.70;;;6.70;99.90;;;;;;5042553;28;20201;-76
2023/12/27 04:06:00;;;;;;;13.70;6.63;;;6.80;99.90;;;;;;5025065;28;20209;-76
2023/12/27 04:08:29;;;;;;;12.93;6.17;;;6.80;99.90;;;;;;5041423;28;20659;-76
2023/12/27 04:10:57;;;;;;;12.93;6.90;;;6.80;99.90;;;;;;5032802;28;20210;-76
2023/12/27 04:13:24;;;;;;;14.90;6.57;;;6.70;99.90;;;;;;5049585;28;20644;-77
2023/12/27 04:15:52;;;;;;;14.77;5.57;;;7.00;99.90;;;;;;5031386;28;20198;-76
2023/12/27 04:18:19;;;;;;;14.07;6.93;;;6.90;99.90;;;;;;5032624;28;20251;-77
2023/12/27 04:20:46;;;;;;;12.57;6.20;;;7.00;99.90;;;;;;5040760;28;20204;-77
2023/12/27 04:23:14;;;;;;;14.67;5.67;;;7.10;99.90;;;;;;5031276;28;20193;-77
2023/12/27 04:25:52;;;;;;;11.80;6.17;;;7.00;99.90;;;;;;5041421;28;20221;-77
2023/12/27 04:28:20;;;;;;;11.83;6.70;;;7.00;99.90;;;;;;5012909;28;20199;-76
2023/12/27 04:30:48;;;;;;;13.63;6.27;;;6.90;99.90;;;;;;5030071;28;20564;-76
2023/12/27 04:33:15;;;;;;;10.73;5.63;;;7.00;99.90;;;;;;5041487;28;20210;-76
2023/12/27 04:35:43;;;;;;;14.30;5.90;;;7.00;99.90;;;;;;5036449;28;20203;-76
2023/12/27 04:38:13;;;;;;;14.67;6.10;;;6.90;99.90;;;;;;5037608;28;20696;-76
2023/12/27 04:40:45;;;;;;;15.47;6.10;;;6.90;99.90;;;;;;5035923;28;20658;-76
2023/12/27 04:43:14;;;;;;;11.97;6.03;;;6.80;99.90;;;;;;5031451;28;20206;-76
2023/12/27 04:45:41;;;;;;;11.20;5.60;;;6.90;99.90;;;;;;5032463;28;20211;-76
2023/12/27 04:48:09;;;;;;;16.00;6.80;;;6.80;99.90;;;;;;5029500;28;20210;-76
2023/12/27 04:50:37;;;;;;;15.23;6.30;;;6.80;99.90;;;;;;5023855;28;20198;-76
2023/12/27 04:53:05;;;;;;;14.20;6.20;;;6.90;99.90;;;;;;5009180;28;20211;-76
2023/12/27 04:55:32;;;;;;;13.63;5.90;;;7.10;99.90;;;;;;5040533;28;20201;-76
2023/12/27 04:57:59;;;;;;;11.53;5.70;;;7.20;99.90;;;;;;5025417;28;20191;-76
2023/12/27 05:00:28;;;;;;;13.50;5.60;;;7.20;99.90;;;;;;5049877;28;20216;-76
2023/12/27 05:02:56;;;;;;;11.37;5.90;;;7.20;99.90;;;;;;5035225;28;20564;-76
2023/12/27 05:05:23;;;;;;;12.07;5.13;;;7.10;99.90;;;;;;5033527;28;20206;-76
2023/12/27 05:07:51;;;;;;;17.77;6.17;;;6.80;99.90;;;;;;5027080;28;20539;-76
2023/12/27 05:10:18;;;;;;;12.23;6.93;;;6.90;99.90;;;;;;5019729;28;20226;-76
2023/12/27 05:12:45;;;;;;;13.40;5.27;;;6.90;99.90;;;;;;5018129;28;20194;-76
2023/12/27 05:15:13;;;;;;;11.73;6.27;;;6.90;99.90;;;;;;5023351;28;20211;-76
2023/12/27 05:17:42;;;;;;;9.43;5.77;;;6.80;99.90;;;;;;5039208;28;20218;-76
2023/12/27 05:20:09;;;;;;;13.30;5.83;;;6.80;99.90;;;;;;5020448;28;20230;-76
2023/12/27 05:22:39;;;;;;;11.63;5.80;;;6.90;99.90;;;;;;5022473;28;20222;-76
2023/12/27 05:25:07;;;;;;;12.37;5.67;;;6.70;99.90;;;;;;5022419;28;20209;-76
2023/12/27 05:27:35;;;;;;;11.53;5.80;;;6.70;99.90;;;;;;5022590;28;20226;-76
2023/12/27 05:30:03;;;;;;;10.30;5.33;;;6.70;99.90;;;;;;5015038;28;20231;-76
2023/12/27 05:32:31;;;;;;;15.40;6.33;;;6.70;99.90;;;;;;5025223;28;20209;-76
2023/12/27 05:34:59;;;;;;;10.10;5.87;;;6.70;99.90;;;;;;5041815;28;20210;-77
2023/12/27 05:37:26;;;;;;;16.27;6.10;;;6.80;99.90;;;;;;5031127;28;20201;-76
2023/12/27 05:39:53;;;;;;;14.13;6.03;;;6.70;99.90;;;;;;5020839;28;20220;-76
2023/12/27 05:42:21;;;;;;;14.77;4.90;;;6.80;99.90;;;;;;5027247;28;20201;-76
2023/12/27 05:44:48;;;;;;;12.70;5.10;;;6.80;99.90;;;;;;5047153;28;20196;-76
2023/12/27 05:47:15;;;;;;;10.07;5.47;;;6.90;99.90;;;;;;5034407;28;20205;-76
2023/12/27 05:49:43;;;;;;;14.07;5.77;;;6.90;99.90;;;;;;5048785;28;20221;-76
2023/12/27 05:52:12;;;;;;;13.37;5.07;;;6.80;99.90;;;;;;5040069;28;20199;-76
2023/12/27 05:54:39;;;;;;;9.90;5.67;;;6.80;99.90;;;;;;5039460;28;20202;-76
2023/12/27 05:57:07;;;;;;;9.07;4.97;;;6.80;99.90;;;;;;5018722;28;20203;-76
2023/12/27 05:59:34;;;;;;;12.93;4.97;;;6.90;99.90;;;;;;5047387;28;20236;-76
2023/12/27 06:02:02;;;;;;;10.80;5.00;;;6.90;99.90;;;;;;5047589;28;20203;-76
2023/12/27 06:04:29;;;;;;;8.93;4.40;;;6.90;99.90;;;;;;5040750;28;20206;-76
2023/12/27 06:06:56;;;;;;;12.17;4.50;;;7.00;99.90;;;;;;5041900;28;20195;-76
2023/12/27 06:09:25;;;;;;;7.97;4.40;;;7.10;99.90;;;;;;5034130;28;20222;-76
2023/12/27 06:11:51;;;;;;;13.00;4.43;;;6.90;99.90;;;;;;5022342;28;20211;-76
2023/12/27 06:14:19;;;;;;;10.17;4.40;;;6.90;99.90;;;;;;5049636;28;20668;-76
2023/12/27 06:16:46;;;;;;;11.07;5.40;;;6.90;99.90;;;;;;5033824;28;20282;-76
2023/12/27 06:19:14;;;;;;;10.23;4.40;;;6.90;99.90;;;;;;5037369;28;20218;-76
2023/12/27 06:21:42;;;;;;;8.13;4.07;;;6.90;99.90;;;;;;5039046;28;20199;-76
2023/12/27 06:24:09;;;;;;;9.63;4.77;;;6.90;99.90;;;;;;5039716;28;20207;-76
2023/12/27 06:26:38;;;;;;;9.80;4.10;;;6.80;99.90;;;;;;5033075;28;20194;-76
2023/12/27 06:29:06;;;;;;;9.70;5.07;;;6.90;99.90;;;;;;5038500;28;20216;-76
2023/12/27 06:35:02;;;;;;;16.37;5.13;;;6.90;99.90;;;;;;5032440;28;20197;-76
2023/12/27 06:37:29;;;;;;;11.60;3.87;;;7.00;99.90;;;;;;5031947;28;20209;-76
2023/12/27 06:39:56;;;;;;;10.20;4.23;;;7.00;99.90;;;;;;5029184;28;20225;-76
2023/12/27 06:42:25;;;;;;;7.57;4.00;;;7.00;99.90;;;;;;5034623;28;20193;-76
2023/12/27 06:44:52;;;;;;;7.07;3.50;;;7.00;99.90;;;;;;5040665;28;20211;-76
2023/12/27 06:47:20;;;;;;;8.37;3.60;;;6.90;99.90;;;;;;5042824;28;20198;-76
2023/12/27 06:49:48;;;;;;;12.83;4.50;;;6.90;99.90;;;;;;5031101;28;20222;-76
2023/12/27 06:52:16;;;;;;;8.57;4.37;;;6.90;99.90;;;;;;5022941;28;20201;-76
2023/12/27 06:55:03;;;;;;;9.30;4.80;;;6.90;99.90;;;;;;5028216;28;20190;-76
2023/12/27 06:57:32;;;;;;;5.93;3.80;;;6.90;99.90;;;;;;5043003;28;20189;-76
2023/12/27 06:59:59;;;;;;;9.17;4.03;;;6.90;99.90;;;;;;5028996;28;20225;-75
2023/12/27 07:02:27;;;;;;;11.07;3.83;;;7.00;99.90;;;;;;5027221;28;20204;-76
2023/12/27 07:05:24;;;;;;;11.70;4.83;;;7.00;99.90;;;;;;5024333;28;20202;-76
2023/12/27 07:07:51;;;;;;;9.23;4.20;;;7.00;99.90;;;;;;5001397;28;20218;-76
2023/12/27 07:10:52;;;;;;;11.63;3.60;;;7.00;99.90;;;;;;5028702;28;20244;-76
2023/12/27 07:13:20;;;;;;;9.90;4.30;;;7.10;99.90;;;;;;5032767;28;20203;-75
2023/12/27 07:15:48;;;;;;;7.63;3.87;;;7.10;99.90;;;;;;5028096;28;20202;-76
2023/12/27 07:18:15;;;;;;;8.17;4.07;;;7.10;99.90;;;;;;5025371;28;20203;-76
2023/12/27 07:21:07;;;;;;;10.00;4.47;;;7.10;99.90;;;;;;5038262;28;20226;-75
2023/12/27 07:23:34;;;;;;;10.37;3.90;;;7.10;99.90;;;;;;5021452;28;20207;-75
2023/12/27 07:26:03;;;;;;;11.63;4.33;;;7.10;99.90;;;;;;5040944;28;20202;-75
2023/12/27 07:28:32;;;;;;;7.33;4.20;;;7.10;99.90;;;;;;5031270;28;20218;-75
2023/12/27 07:30:59;;;;;;;6.87;4.33;;;7.10;99.90;;;;;;5044410;28;20189;-75
2023/12/27 07:33:27;;;;;;;9.63;4.17;;;7.10;99.90;;;;;;5030820;28;20207;-76
2023/12/27 07:35:54;;;;;;;7.70;3.90;;;7.20;99.90;;;;;;5031138;28;20218;-76
2023/12/27 07:38:23;;;;;;;7.73;4.80;;;7.20;99.90;;;;;;5029037;28;20198;-76
2023/12/27 07:40:50;;;;;;;5.97;4.37;;;7.30;99.90;;;;;;5038814;28;20209;-76
2023/12/27 07:43:20;;;;;;;12.70;4.47;;;7.30;99.90;;;;;;5022644;28;20658;-76
2023/12/27 07:45:49;;;;;;;8.40;4.27;;;7.30;99.90;;;;;;5037094;28;20714;-76
2023/12/27 07:48:16;;;;;;;9.10;4.80;;;7.40;99.90;;;;;;5021446;28;20202;-76
2023/12/27 07:50:45;;;;;;;8.53;4.67;;;7.40;99.90;;;;;;5030213;28;20214;-75
2023/12/27 07:53:13;;;;;;;10.83;5.23;;;7.40;99.90;;;;;;5026379;28;20210;-76
2023/12/27 07:55:40;;;;;;;9.23;4.63;;;7.50;99.90;;;;;;5037619;28;20199;-76
2023/12/27 07:58:08;;;;;;;9.83;5.20;;;7.50;99.90;;;;;;5056308;28;20198;-76
2023/12/27 08:00:35;;;;;;;9.70;4.73;;;7.50;99.90;;;;;;5039643;28;20214;-76
2023/12/27 08:03:08;;;;;;;11.57;5.50;;;7.60;99.90;;;;;;5012420;28;20211;-76
2023/12/27 08:05:36;;;;;;;10.77;4.90;;;7.50;99.90;;;;;;5022537;28;20198;-76
2023/12/27 08:08:03;;;;;;;8.80;4.80;;;7.60;99.90;;;;;;5047873;28;20205;-76
2023/12/27 08:10:32;;;;;;;6.00;4.17;;;7.60;99.90;;;;;;5028317;28;20225;-76
2023/12/27 08:13:00;;;;;;;9.13;4.77;;;7.60;99.90;;;;;;5040461;28;20206;-76
2023/12/27 08:15:27;;;;;;;10.07;4.40;;;7.70;99.90;;;;;;5032599;28;20201;-76
2023/12/27 08:17:55;;;;;;;11.20;4.53;;;7.70;99.90;;;;;;5052417;28;20195;-76
2023/12/27 08:20:24;;;;;;;9.43;5.10;;;7.80;99.90;;;;;;5031595;28;20234;-76
2023/12/27 08:22:51;;;;;;;9.07;4.73;;;7.80;99.90;;;;;;5029434;28;20669;-75
2023/12/27 08:25:18;;;;;;;10.70;4.70;;;7.90;99.90;;;;;;5018298;28;20196;-76
2023/12/27 08:27:47;;;;;;;10.90;4.90;;;7.80;99.90;;;;;;5041058;28;20206;-76
2023/12/27 08:30:15;;;;;;;8.17;4.80;;;7.90;99.90;;;;;;5027326;28;20223;-75
2023/12/27 08:32:42;;;;;;;10.10;4.90;;;7.80;99.90;;;;;;5033314;28;20202;-76
2023/12/27 08:35:10;;;;;;;8.90;4.60;;;8.00;99.90;;;;;;5044599;28;20214;-76
2023/12/27 08:37:38;;;;;;;7.97;4.60;;;8.10;99.90;;;;;;5028634;28;20199;-76
2023/12/27 08:40:07;;;;;;;7.23;4.20;;;8.10;99.90;;;;;;5028903;28;20216;-76
2023/12/27 08:42:51;;;;;;;7.93;4.40;;;8.20;99.90;;;;;;5034783;28;20205;-76
2023/12/27 08:46:05;;;;;;;10.13;4.33;;;8.30;99.90;;;;;;5016990;28;20199;-76
2023/12/27 08:48:32;;;;;;;8.13;4.63;;;8.30;99.90;;;;;;5027781;28;20214;-76
2023/12/27 08:51:01;;;;;;;8.80;4.20;;;8.30;99.90;;;;;;5023331;28;20191;-76
2023/12/27 08:53:30;;;;;;;7.70;3.80;;;8.30;99.90;;;;;;5034944;28;20200;-76
2023/12/27 08:55:58;;;;;;;6.13;3.43;;;8.40;99.90;;;;;;5025506;28;20195;-76
2023/12/27 08:58:26;;;;;;;5.60;3.50;;;8.40;99.90;;;;;;5024514;28;21627;-76
2023/12/27 09:00:53;;;;;;;7.80;3.50;;;8.30;99.90;;;;;;5032584;28;20240;-76
2023/12/27 09:03:26;;;;;;;8.43;3.60;;;8.40;99.90;;;;;;5044569;28;20198;-76
2023/12/27 09:06:00;;;;;;;7.07;3.30;;;8.40;99.90;;;;;;5025010;28;20554;-76
2023/12/27 09:08:31;;;;;;;5.00;2.83;;;8.50;99.90;;;;;;5006925;28;20222;-76
2023/12/27 09:10:58;;;;;;;7.13;2.90;;;8.60;99.90;;;;;;5047428;28;20191;-76
2023/12/27 09:13:26;;;;;;;3.00;2.37;;;8.60;99.90;;;;;;5015157;28;20211;-75
2023/12/27 09:15:54;;;;;;;4.27;2.67;;;8.60;99.90;;;;;;5026813;28;20205;-75
2023/12/27 09:18:21;;;;;;;7.20;2.63;;;8.70;99.90;;;;;;5032991;28;20206;-76
2023/12/27 09:20:48;;;;;;;4.67;2.57;;;8.70;99.90;;;;;;5037254;28;20220;-76
2023/12/27 09:23:16;;;;;;;6.53;2.70;;;8.80;99.90;;;;;;5021534;28;20212;-76
2023/12/27 09:25:55;;;;;;;5.00;2.90;;;8.80;99.90;;;;;;5018875;28;20199;-76
2023/12/27 09:28:25;;;;;;;3.77;2.60;;;8.80;99.90;;;;;;5043109;28;20539;-76
2023/12/27 09:30:53;;;;;;;6.10;2.90;;;8.80;99.90;;;;;;5035384;28;20195;-76
2023/12/27 09:33:21;;;;;;;5.23;2.77;;;8.80;99.90;;;;;;5023568;28;20212;-76
2023/12/27 09:35:49;;;;;;;3.60;2.50;;;8.90;99.90;;;;;;5028215;28;20192;-76
2023/12/27 09:38:16;;;;;;;4.17;2.77;;;8.90;99.90;;;;;;5024723;28;20557;-76
2023/12/27 09:40:44;;;;;;;4.57;2.70;;;8.90;99.90;;;;;;5030898;28;20211;-76
2023/12/27 09:43:13;;;;;;;6.30;2.83;;;9.00;99.90;;;;;;5015677;28;20196;-76
2023/12/27 09:45:42;;;;;;;3.67;2.37;;;9.00;99.90;;;;;;5021234;28;20196;-75
2023/12/27 09:48:18;;;;;;;5.30;2.40;;;9.00;99.90;;;;;;5024299;28;20199;-76
2023/12/27 09:50:47;;;;;;;3.57;2.60;;;9.00;99.90;;;;;;5045050;28;20548;-76
2023/12/27 09:53:16;;;;;;;4.87;2.63;;;9.10;99.90;;;;;;5035322;28;20207;-76
2023/12/27 09:55:44;;;;;;;3.80;2.80;;;9.10;99.90;;;;;;5022469;28;20196;-76
2023/12/27 09:58:14;;;;;;;5.63;2.47;;;9.10;99.90;;;;;;5032973;28;20202;-76
2023/12/27 10:00:45;;;;;;;4.20;2.40;;;9.20;99.90;;;;;;5037175;28;20216;-76
2023/12/27 10:03:15;;;;;;;2.70;2.30;;;9.20;99.90;;;;;;5022549;28;20206;-76
2023/12/27 10:05:47;;;;;;;4.33;2.30;;;9.20;99.90;;;;;;5016247;28;20211;-75
2023/12/27 10:08:15;;;;;;;2.93;2.63;;;9.20;99.90;;;;;;5026646;28;20204;-76
2023/12/27 10:10:44;;;;;;;5.30;3.20;;;9.20;99.90;;;;;;5039392;28;20198;-76
2023/12/27 10:13:13;;;;;;;4.53;2.70;;;9.20;99.90;;;;;;5037500;28;20203;-76
2023/12/27 10:15:41;;;;;;;3.00;2.10;;;9.20;99.90;;;;;;5010469;28;20652;-76
2023/12/27 10:18:08;;;;;;;3.63;2.23;;;9.20;99.90;;;;;;5033296;28;20202;-76
2023/12/27 10:20:53;;;;;;;3.57;2.77;;;9.20;99.90;;;;;;5031262;28;20660;-76
2023/12/27 10:23:21;;;;;;;3.67;2.43;;;9.20;99.90;;;;;;5029439;28;20188;-76
2023/12/27 10:25:50;;;;;;;4.93;2.20;;;9.30;99.90;;;;;;5036878;28;20646;-76
2023/12/27 10:28:23;;;;;;;3.53;2.17;;;9.30;99.90;;;;;;5015960;28;20206;-76
2023/12/27 10:30:52;;;;;;;2.50;2.03;;;9.30;99.90;;;;;;5040870;28;20653;-76
2023/12/27 10:33:20;;;;;;;3.00;2.70;;;9.30;99.90;;;;;;5041305;28;20198;-75
2023/12/27 10:35:48;;;;;;;2.27;1.93;;;9.30;99.90;;;;;;5032069;28;20183;-76
2023/12/27 10:38:16;;;;;;;3.90;2.23;;;9.30;99.90;;;;;;5032340;28;20206;-76
2023/12/27 10:40:44;;;;;;;2.40;1.97;;;9.30;99.90;;;;;;5003366;28;20207;-76
2023/12/27 10:43:13;;;;;;;2.20;1.90;;;9.30;99.90;;;;;;5064578;22;20217;-77
2023/12/27 10:45:42;;;;;;;3.73;2.00;;;9.40;99.90;;;;;;5060319;28;20205;-79
2023/12/27 10:48:12;;;;;;;3.40;2.07;;;9.40;99.90;;;;;;5055414;28;20198;-78
2023/12/27 10:50:55;;;;;;;;;;;;;;;;;;;;;
2023/12/27 10:54:24;;;;;;;;;;;;;;;;;;;;;
2023/12/27 10:56:56;;;;;;;2.70;1.87;;;9.40;99.90;;;;;;5004670;28;20202;-78
2023/12/27 10:59:24;;;;;;;4.40;1.93;;;9.40;99.90;;;;;;5041250;28;20199;-78
2023/12/27 11:01:54;;;;;;;2.67;1.90;;;9.40;99.90;;;;;;5036980;28;20223;-79
2023/12/27 11:04:23;;;;;;;2.40;1.83;;;9.40;99.90;;;;;;5038074;28;20199;-78
2023/12/27 11:06:54;;;;;;;3.90;2.13;;;9.40;99.90;;;;;;5067662;28;20199;-79
2023/12/27 11:09:25;;;;;;;3.37;2.07;;;9.50;99.90;;;;;;5041051;28;20195;-78
2023/12/27 11:11:55;;;;;;;2.33;1.80;;;9.50;99.90;;;;;;5033312;28;20215;-78
2023/12/27 11:14:24;;;;;;;1.63;1.53;;;9.60;99.90;;;;;;5020020;28;20195;-79
2023/12/27 11:16:55;;;;;;;2.20;1.77;;;9.60;99.90;;;;;;5038777;28;20202;-79
2023/12/27 11:19:27;;;;;;;2.07;1.73;;;9.50;99.90;;;;;;5061585;28;20201;-79
2023/12/27 11:22:01;;;;;;;3.20;2.07;;;9.50;99.90;;;;;;5030594;28;20613;-79
2023/12/27 11:24:29;;;;;;;1.77;1.67;;;9.50;99.90;;;;;;5048258;28;20186;-79
2023/12/27 11:27:00;;;;;;;2.10;1.60;;;9.60;99.90;;;;;;5059287;28;20202;-79
2023/12/27 11:29:31;;;;;;;4.23;1.30;;;9.60;99.90;;;;;;5050945;28;20252;-79
2023/12/27 11:32:00;;;;;;;2.93;1.50;;;9.60;99.90;;;;;;5036250;28;20211;-79
2023/12/27 11:34:28;;;;;;;2.40;1.30;;;9.60;99.90;;;;;;5033404;28;20203;-79
2023/12/27 11:37:23;;;;;;;2.00;1.47;;;9.60;99.90;;;;;;5044377;28;20202;-79
2023/12/27 11:39:53;;;;;;;2.50;1.80;;;9.70;99.90;;;;;;5051154;28;20210;-79
2023/12/27 11:42:22;;;;;;;3.90;1.70;;;9.70;99.90;;;;;;5032987;28;20226;-79
2023/12/27 11:44:53;;;;;;;1.70;1.60;;;9.80;99.90;;;;;;5045538;28;20195;-79
2023/12/27 11:47:22;;;;;;;1.90;1.67;;;9.70;99.90;;;;;;5034292;28;20214;-79
2023/12/27 11:50:19;;;;;;;1.93;1.10;;;9.80;99.90;;;;;;5033341;28;20207;-79
2023/12/27 11:52:51;;;;;;;3.07;1.50;;;9.80;99.90;;;;;;5037597;28;20619;-79
2023/12/27 11:55:20;;;;;;;4.27;1.53;;;9.80;99.90;;;;;;5049353;28;20226;-79
2023/12/27 11:57:56;;;;;;;3.00;1.23;;;9.80;99.90;;;;;;5050418;28;20206;-79
2023/12/27 12:00:25;;;;;;;1.53;1.10;;;9.80;99.90;;;;;;5057873;28;20203;-79
2023/12/27 12:02:58;;;;;;;2.00;1.30;;;9.80;99.90;;;;;;5037891;28;20237;-79
2023/12/27 12:05:43;;;;;;;2.30;1.17;;;9.80;99.90;;;;;;5042583;28;20205;-79
2023/12/27 12:08:18;;;;;;;1.73;1.30;;;9.80;99.90;;;;;;5028964;28;20207;-79
2023/12/27 12:11:05;;;;;;;2.10;1.50;;;9.80;99.90;;;;;;5032849;28;20194;-79
2023/12/27 12:13:32;;;;;;;1.70;1.20;;;9.80;99.90;;;;;;5041796;28;20194;-79
2023/12/27 12:16:00;;;;;;;1.67;1.27;;;9.90;99.90;;;;;;5033291;28;20195;-79
2023/12/27 12:18:30;;;;;;;1.50;1.27;;;9.80;99.90;;;;;;5033975;28;20191;-80
2023/12/27 12:20:58;;;;;;;0.80;0.80;;;9.80;99.90;;;;;;5029374;28;20206;-79
2023/12/27 12:23:29;;;;;;;1.40;1.20;;;9.90;99.90;;;;;;5043619;28;20221;-79
2023/12/27 12:26:00;;;;;;;2.53;1.47;;;9.90;99.90;;;;;;5035522;28;20213;-79
2023/12/27 12:28:28;;;;;;;1.73;1.23;;;9.90;99.90;;;;;;5034349;28;20206;-79
2023/12/27 12:30:56;;;;;;;2.23;1.27;;;9.90;99.90;;;;;;5032873;28;20202;-79
2023/12/27 12:33:24;;;;;;;1.87;1.33;;;9.90;99.90;;;;;;5032217;28;20230;-79
2023/12/27 12:35:55;;;;;;;1.30;1.07;;;9.90;99.90;;;;;;5040890;28;20664;-79
2023/12/27 12:38:22;;;;;;;1.50;1.10;;;9.90;99.90;;;;;;5034019;28;20194;-79
2023/12/27 12:40:53;;;;;;;1.43;1.03;;;9.90;99.90;;;;;;5032734;28;20213;-78
2023/12/27 12:43:21;;;;;;;2.40;1.40;;;9.90;99.90;;;;;;5030606;28;20223;-78
2023/12/27 12:45:48;;;;;;;1.20;1.03;;;9.90;99.90;;;;;;5031834;28;20195;-78
2023/12/27 12:48:16;;;;;;;1.67;1.20;;;9.90;99.90;;;;;;5026142;28;20214;-79
2023/12/27 12:51:26;;;;;;;1.20;1.10;;;9.90;99.90;;;;;;5032423;28;20206;-79
2023/12/27 12:53:56;;;;;;;1.47;1.37;;;9.90;99.90;;;;;;5035798;28;20214;-77
2023/12/27 12:56:23;;;;;;;2.47;1.17;;;9.90;99.90;;;;;;5031473;28;20198;-79
2023/12/27 12:58:51;;;;;;;2.17;1.17;;;9.90;99.90;;;;;;5032661;28;20674;-78
2023/12/27 13:01:19;;;;;;;1.93;1.23;;;10.00;99.90;;;;;;5044696;28;20214;-77
2023/12/27 13:03:50;;;;;;;2.30;1.07;;;9.90;99.90;;;;;;5033934;28;20225;-79
2023/12/27 13:06:18;;;;;;;1.20;1.10;;;9.90;99.90;;;;;;5035265;28;20203;-79
2023/12/27 13:08:51;;;;;;;2.93;1.30;;;9.90;99.90;;;;;;5031669;28;20199;-79
2023/12/27 13:11:21;;;;;;;2.03;1.13;;;10.00;99.90;;;;;;5049830;28;20191;-79